KHTS/HTS METAR and TAF weather

Enter ICAO airport designator
Station Type Date Time Source
KHTS METAR 2021/01/16 01:51 UTC NOAA

KHTS 160151Z 00000KT 10SM OVC045 01/M01 A2969 RMK AO2 UPB00E11B38E50RAB11E12B50E51 SLP060 P0000 T00061006


Station Type Date Time Source
KHTS Decoded METAR 2021/01/16 01:51 UTC NOAA

TRI-STATE AIRPORT, WV, United States (KHTS) 38-22N 082-33W 254M
Jan 15, 2021 - 08:51 PM EST / 2021.01.16 0151 UTC
Wind: Calm:0
Visibility: 10 mile(s):0
Sky conditions: overcast
Precipitation last hour: A trace
Temperature: 33.1 F (0.6 C)
Dew Point: 30.9 F (-0.6 C)
Relative Humidity: 91%
Pressure (altimeter): 29.69 in. Hg (1005 hPa)
ob: KHTS 160151Z 00000KT 10SM OVC045 01/M01 A2969 RMK AO2 UPB00E11B38E50RAB11E12B50E51 SLP060 P0000 T00061006
cycle: 2

Station Type Date Time Source
KHTS TAF 2021/01/16 02:27 UTC NOAA

TAF
AMD KHTS 160224Z 1602/1624 14004KT P6SM BKN090
TEMPO 1602/1605 4SM -SHSN BKN015
FM160900 20004KT P6SM BKN035
FM161200 23004KT P6SM OVC030
FM161800 28009G18KT P6SM -SHSN BKN025

Example: see airport list